createdAt,value
2022-08-27T00:01:34.583Z,2.38
2022-08-27T00:04:02.770Z,3.05
2022-08-27T00:06:29.465Z,4.18
2022-08-27T00:08:56.537Z,5.07
2022-08-27T00:11:27.107Z,9.60
2022-08-27T00:13:54.168Z,2.50
2022-08-27T00:16:21.334Z,3.13
2022-08-27T00:18:48.951Z,2.28
2022-08-27T00:21:16.461Z,3.85
2022-08-27T00:23:43.559Z,5.55
2022-08-27T00:26:10.497Z,3.55
2022-08-27T00:28:37.704Z,4.18
2022-08-27T00:31:05.330Z,3.67
2022-08-27T00:33:32.473Z,3.58
2022-08-27T00:35:59.758Z,2.58
2022-08-27T00:38:26.748Z,3.33
2022-08-27T00:40:55.260Z,5.88
2022-08-27T00:43:26.388Z,2.70
2022-08-27T00:45:58.725Z,4.85
2022-08-27T00:48:28.626Z,3.72
2022-08-27T00:50:56.093Z,6.80
2022-08-27T00:53:25.665Z,5.30
2022-08-27T00:55:58.209Z,3.53
2022-08-27T00:58:31.585Z,4.32
2022-08-27T01:01:00.572Z,3.08
2022-08-27T01:03:27.725Z,4.18
2022-08-27T01:05:57.127Z,4.03
2022-08-27T01:08:28.804Z,6.97
2022-08-27T01:10:58.424Z,4.97
2022-08-27T01:13:53.440Z,3.45
2022-08-27T01:16:19.212Z,6.45
2022-08-27T01:18:46.383Z,2.78
2022-08-27T01:21:19.009Z,3.15
2022-08-27T01:24:14.019Z,4.03
2022-08-27T01:26:41.651Z,3.03
2022-08-27T01:29:08.518Z,3.15
2022-08-27T01:31:35.666Z,3.42
2022-08-27T01:34:05.160Z,3.03
2022-08-27T01:36:32.569Z,3.83
2022-08-27T01:39:00.111Z,4.38
2022-08-27T01:41:27.445Z,5.97
2022-08-27T01:43:54.368Z,4.32
2022-08-27T01:46:25.082Z,6.22
2022-08-27T01:48:52.674Z,3.67
2022-08-27T01:51:19.769Z,8.77
2022-08-27T01:53:47.082Z,3.25
2022-08-27T01:56:13.917Z,6.25
2022-08-27T01:58:41.005Z,3.92
2022-08-27T02:01:10.271Z,4.88
2022-08-27T02:03:37.768Z,5.43
2022-08-27T02:06:07.360Z,3.58
2022-08-27T02:08:36.870Z,3.50
2022-08-27T02:11:03.949Z,3.72
2022-08-27T02:13:30.607Z,5.15
2022-08-27T02:15:58.035Z,4.45
2022-08-27T02:18:25.205Z,7.05
2022-08-27T02:20:52.286Z,5.40
2022-08-27T02:23:19.561Z,7.28
2022-08-27T02:25:47.243Z,5.13
2022-08-27T02:28:14.420Z,4.32
2022-08-27T02:30:41.533Z,3.03
2022-08-27T02:33:08.183Z,2.63
2022-08-27T02:35:38.833Z,4.38
2022-08-27T02:38:06.248Z,2.95
2022-08-27T02:40:33.336Z,2.80
2022-08-27T02:43:00.067Z,2.17
2022-08-27T02:45:27.244Z,2.08
2022-08-27T02:47:54.061Z,2.10
2022-08-27T02:50:20.896Z,2.53
2022-08-27T02:52:54.057Z,1.63
2022-08-27T02:55:20.845Z,1.88
2022-08-27T02:57:48.392Z,2.22
2022-08-27T03:00:17.908Z,1.85
2022-08-27T03:02:45.319Z,1.15
2022-08-27T03:05:12.856Z,1.20
2022-08-27T03:07:40.247Z,2.10
2022-08-27T03:10:07.456Z,1.20
2022-08-27T03:12:36.256Z,2.05
2022-08-27T03:15:05.639Z,0.70
2022-08-27T03:17:51.037Z,0.90
2022-08-27T03:20:18.918Z,0.70
2022-08-27T03:22:46.500Z,1.10
2022-08-27T03:25:13.680Z,1.48
2022-08-27T03:27:40.680Z,0.80
2022-08-27T03:30:12.163Z,1.00
2022-08-27T03:32:38.901Z,0.80
2022-08-27T03:35:06.324Z,1.25
2022-08-27T03:37:32.983Z,1.73
2022-08-27T03:40:00.187Z,1.42
2022-08-27T03:42:27.275Z,1.00
2022-08-27T03:44:54.378Z,5.78
2022-08-27T03:47:22.919Z,1.00
2022-08-27T03:49:50.284Z,1.10
2022-08-27T03:52:17.077Z,0.80
2022-08-27T03:54:45.528Z,1.30
2022-08-27T03:57:12.644Z,1.13
2022-08-27T03:59:39.860Z,1.05
2022-08-27T04:02:07.253Z,1.02
2022-08-27T04:04:34.349Z,0.90
2022-08-27T04:07:01.431Z,1.73
2022-08-27T04:09:28.445Z,1.85
2022-08-27T04:11:55.447Z,0.85
2022-08-27T04:14:27.359Z,1.10
2022-08-27T04:16:57.539Z,1.10
2022-08-27T04:19:28.150Z,1.35
2022-08-27T04:22:00.130Z,1.13
2022-08-27T04:24:27.038Z,1.27
2022-08-27T04:26:54.109Z,1.55
2022-08-27T04:29:20.736Z,2.35
2022-08-27T04:31:48.007Z,2.75
2022-08-27T04:34:15.092Z,1.15
2022-08-27T04:36:42.143Z,1.50
2022-08-27T04:39:08.876Z,1.10
2022-08-27T04:41:35.552Z,2.03
2022-08-27T04:44:07.647Z,3.75
2022-08-27T04:46:40.047Z,0.73
2022-08-27T04:49:12.126Z,2.70
2022-08-27T04:51:41.164Z,1.05
2022-08-27T04:54:10.133Z,0.82
2022-08-27T04:56:37.220Z,0.77
2022-08-27T04:59:05.371Z,0.65
2022-08-27T05:01:32.334Z,0.80
2022-08-27T05:03:59.267Z,1.10
2022-08-27T05:06:26.598Z,0.95
2022-08-27T05:08:54.370Z,1.17
2022-08-27T05:11:22.531Z,1.25
2022-08-27T05:13:49.753Z,1.50
2022-08-27T05:16:19.913Z,1.95
2022-08-27T05:18:48.720Z,0.90
2022-08-27T05:21:27.501Z,0.80
2022-08-27T05:23:56.552Z,0.63
2022-08-27T05:26:23.748Z,0.82
2022-08-27T05:28:50.836Z,0.82
2022-08-27T05:31:18.376Z,1.08
2022-08-27T05:33:46.155Z,1.73
2022-08-27T05:36:18.263Z,0.75
2022-08-27T05:38:45.339Z,0.80
2022-08-27T05:41:14.639Z,0.77
2022-08-27T05:43:46.473Z,1.05
2022-08-27T05:46:18.586Z,0.82
2022-08-27T05:48:45.450Z,0.60
2022-08-27T05:51:13.768Z,0.85
2022-08-27T05:53:43.960Z,0.73
2022-08-27T05:56:15.122Z,0.85
2022-08-27T05:59:01.284Z,1.02
2022-08-27T06:01:28.903Z,1.13
2022-08-27T06:03:56.329Z,1.48
2022-08-27T06:06:23.431Z,0.90
2022-08-27T06:08:51.436Z,0.55
2022-08-27T06:11:22.066Z,0.70
2022-08-27T06:13:49.501Z,0.88
2022-08-27T06:16:18.171Z,1.17
2022-08-27T06:18:46.513Z,0.85
2022-08-27T06:21:14.873Z,0.85
2022-08-27T06:23:42.515Z,0.93
2022-08-27T06:26:11.676Z,1.42
2022-08-27T06:28:41.280Z,1.35
2022-08-27T06:31:12.867Z,0.63
2022-08-27T06:33:40.844Z,1.02
2022-08-27T06:36:10.519Z,1.35
2022-08-27T06:38:37.973Z,2.47
2022-08-27T06:41:06.508Z,1.85
2022-08-27T06:43:44.047Z,2.38
2022-08-27T06:46:13.176Z,3.38
2022-08-27T06:48:40.369Z,1.70
2022-08-27T06:51:08.804Z,5.18
2022-08-27T06:53:36.220Z,2.20
2022-08-27T06:56:03.407Z,2.67
2022-08-27T06:58:30.048Z,4.03
2022-08-27T07:00:56.668Z,2.70
2022-08-27T07:03:23.715Z,3.05
2022-08-27T07:05:50.761Z,4.05
2022-08-27T07:08:17.520Z,3.47
2022-08-27T07:10:44.564Z,3.75
2022-08-27T07:13:11.325Z,2.83
2022-08-27T07:15:41.796Z,4.15
2022-08-27T07:18:09.127Z,3.95
2022-08-27T07:20:41.109Z,3.78
2022-08-27T07:23:10.995Z,3.22
2022-08-27T07:25:41.519Z,4.78
2022-08-27T07:28:08.166Z,6.40
2022-08-27T07:30:37.462Z,3.25
2022-08-27T07:33:05.090Z,2.22
2022-08-27T07:35:32.558Z,3.53
2022-08-27T07:37:59.219Z,5.65
2022-08-27T07:40:26.467Z,2.38
2022-08-27T07:43:12.334Z,1.70
2022-08-27T07:45:48.278Z,1.60
2022-08-27T07:48:16.341Z,2.15
2022-08-27T07:50:44.180Z,1.88
2022-08-27T07:53:11.273Z,2.30
2022-08-27T07:55:39.255Z,3.08
2022-08-27T07:58:06.672Z,2.25
2022-08-27T08:00:38.741Z,1.83
2022-08-27T08:03:05.838Z,2.63
2022-08-27T08:05:32.461Z,2.53
2022-08-27T08:07:59.104Z,2.03
2022-08-27T08:10:25.838Z,3.53
2022-08-27T08:12:52.691Z,2.10
2022-08-27T08:15:19.791Z,1.92
2022-08-27T08:17:46.786Z,1.92
2022-08-27T08:20:27.201Z,2.90
2022-08-27T08:22:57.940Z,5.00
2022-08-27T08:25:24.577Z,2.53
2022-08-27T08:27:51.961Z,2.72
2022-08-27T08:30:18.700Z,3.00
2022-08-27T08:32:45.839Z,4.43
2022-08-27T08:35:13.456Z,3.42
2022-08-27T08:37:43.110Z,4.05
2022-08-27T08:40:10.455Z,3.67
2022-08-27T08:42:40.127Z,2.60
2022-08-27T08:45:11.903Z,3.10
2022-08-27T08:47:53.459Z,3.22
2022-08-27T08:50:25.961Z,1.90
2022-08-27T08:52:56.690Z,1.95
2022-08-27T08:55:33.501Z,3.63
2022-08-27T08:58:20.133Z,2.28
2022-08-27T09:00:49.372Z,3.67
2022-08-27T09:03:16.754Z,2.25
2022-08-27T09:06:01.053Z,2.22
2022-08-27T09:08:40.641Z,3.67
2022-08-27T09:11:25.273Z,2.33
2022-08-27T09:13:55.572Z,1.88
2022-08-27T09:16:23.052Z,2.33
2022-08-27T09:18:52.361Z,2.75
2022-08-27T09:21:38.476Z,3.60
2022-08-27T09:24:09.959Z,3.72
2022-08-27T09:26:39.513Z,2.63
2022-08-27T09:29:16.387Z,3.30
2022-08-27T09:32:03.707Z,3.13
2022-08-27T09:34:38.189Z,2.45
2022-08-27T09:37:10.329Z,2.33
2022-08-27T09:39:53.968Z,1.67
2022-08-27T09:42:23.865Z,2.58
2022-08-27T09:44:53.645Z,2.40
2022-08-27T09:47:20.873Z,1.80
2022-08-27T09:49:48.308Z,1.77
2022-08-27T09:52:59.111Z,1.40
2022-08-27T09:55:27.925Z,2.13
2022-08-27T09:57:55.203Z,3.08
2022-08-27T10:00:29.369Z,1.65
2022-08-27T10:03:00.020Z,1.70
2022-08-27T10:05:32.180Z,1.77
2022-08-27T10:08:05.705Z,3.00
2022-08-27T10:10:49.731Z,1.90
2022-08-27T10:13:21.736Z,2.42
2022-08-27T10:15:54.452Z,2.10
2022-08-27T10:18:52.461Z,1.95
2022-08-27T10:21:32.894Z,1.80
2022-08-27T10:24:09.205Z,2.17
2022-08-27T10:27:16.957Z,2.13
2022-08-27T10:29:44.029Z,3.08
2022-08-27T10:32:32.518Z,2.08
2022-08-27T10:35:13.061Z,3.45
2022-08-27T10:37:45.229Z,2.00
2022-08-27T10:40:25.470Z,1.83
2022-08-27T10:43:18.770Z,1.85
2022-08-27T10:46:06.063Z,1.73
2022-08-27T10:48:40.727Z,2.35
2022-08-27T10:51:16.530Z,1.70
2022-08-27T10:54:04.231Z,3.40
2022-08-27T10:56:37.965Z,2.45
2022-08-27T10:59:24.137Z,2.05
2022-08-27T11:02:10.079Z,1.73
2022-08-27T11:04:43.258Z,2.45
2022-08-27T11:07:15.573Z,1.65
2022-08-27T11:09:56.188Z,2.17
2022-08-27T11:12:46.704Z,2.40
2022-08-27T11:15:22.746Z,2.15
2022-08-27T11:17:57.974Z,2.10
2022-08-27T11:20:57.414Z,3.00
2022-08-27T11:23:27.680Z,1.67
2022-08-27T11:26:02.399Z,2.53
2022-08-27T11:28:48.284Z,2.55
2022-08-27T11:31:27.307Z,1.92
2022-08-27T11:34:15.288Z,3.90
2022-08-27T11:36:45.503Z,2.20
2022-08-27T11:40:05.420Z,1.65
2022-08-27T11:42:32.523Z,2.25
2022-08-27T11:45:08.138Z,2.25
2022-08-27T11:47:38.831Z,1.67
2022-08-27T11:50:16.156Z,2.08
2022-08-27T11:52:55.122Z,1.40
2022-08-27T11:55:22.192Z,1.45
2022-08-27T11:57:50.433Z,1.08
2022-08-27T12:00:26.751Z,2.35
2022-08-27T12:03:02.264Z,2.22
2022-08-27T12:05:37.052Z,1.35
2022-08-27T12:08:21.832Z,2.78
2022-08-27T12:10:58.277Z,3.42
2022-08-27T12:13:25.658Z,1.55
2022-08-27T12:16:23.454Z,1.38
2022-08-27T12:19:20.600Z,2.15
2022-08-27T12:21:50.648Z,1.20
2022-08-27T12:24:41.424Z,1.65
2022-08-27T12:27:14.935Z,1.27
2022-08-27T12:29:57.918Z,1.85
2022-08-27T12:32:37.156Z,2.80
2022-08-27T12:35:20.509Z,3.10
2022-08-27T12:38:04.392Z,1.30
2022-08-27T12:40:39.884Z,1.63
2022-08-27T12:43:13.292Z,1.60
2022-08-27T12:45:50.404Z,2.33
2022-08-27T12:48:36.303Z,3.05
2022-08-27T12:51:07.962Z,3.08
2022-08-27T12:53:55.281Z,1.60
2022-08-27T12:56:22.637Z,1.90
2022-08-27T12:59:10.962Z,3.72
2022-08-27T13:02:40.722Z,2.10
2022-08-27T13:05:10.633Z,2.72
2022-08-27T13:07:42.360Z,1.88
2022-08-27T13:10:20.032Z,2.08
2022-08-27T13:12:48.432Z,2.88
2022-08-27T13:15:17.068Z,3.25
2022-08-27T13:17:46.324Z,2.80
2022-08-27T13:20:25.140Z,2.58
2022-08-27T13:22:53.766Z,1.88
2022-08-27T13:25:29.489Z,2.88
2022-08-27T13:28:08.360Z,1.50
2022-08-27T13:30:38.485Z,3.00
2022-08-27T13:33:08.610Z,1.70
2022-08-27T13:35:35.513Z,1.60
2022-08-27T13:38:03.849Z,2.40
2022-08-27T13:40:32.595Z,2.53
2022-08-27T13:43:10.231Z,1.65
2022-08-27T13:45:39.769Z,3.70
2022-08-27T13:48:07.235Z,1.63
2022-08-27T13:50:35.980Z,1.95
2022-08-27T13:53:31.474Z,2.03
2022-08-27T13:55:58.867Z,1.55
2022-08-27T13:58:31.407Z,1.73
2022-08-27T14:01:09.814Z,1.60
2022-08-27T14:03:51.147Z,2.00
2022-08-27T14:06:25.940Z,1.33
2022-08-27T14:09:29.490Z,1.70
2022-08-27T14:12:08.726Z,2.78
2022-08-27T14:14:40.048Z,4.22
2022-08-27T14:17:10.823Z,2.33
2022-08-27T14:19:40.076Z,2.47
2022-08-27T14:22:06.830Z,2.30
2022-08-27T14:24:33.463Z,1.60
2022-08-27T14:27:05.843Z,1.60
2022-08-27T14:29:32.470Z,2.45
2022-08-27T14:31:59.535Z,2.20
2022-08-27T14:34:26.150Z,2.67
2022-08-27T14:36:54.846Z,3.25
2022-08-27T14:39:26.496Z,1.90
2022-08-27T14:42:09.511Z,1.95
2022-08-27T14:44:37.008Z,3.80
2022-08-27T14:47:26.734Z,2.65
2022-08-27T14:49:53.717Z,1.80
2022-08-27T14:52:20.791Z,2.20
2022-08-27T14:54:47.843Z,2.10
2022-08-27T14:57:14.935Z,2.13
2022-08-27T14:59:42.593Z,2.35
2022-08-27T15:02:12.056Z,1.75
2022-08-27T15:04:39.134Z,2.78
2022-08-27T15:07:08.957Z,2.03
2022-08-27T15:09:36.020Z,2.40
2022-08-27T15:12:02.930Z,1.65
2022-08-27T15:14:32.606Z,1.27
2022-08-27T15:17:00.067Z,2.42
2022-08-27T15:19:27.917Z,1.70
2022-08-27T15:22:02.654Z,2.30
2022-08-27T15:24:45.560Z,1.52
2022-08-27T15:27:12.302Z,1.75
2022-08-27T15:29:39.811Z,3.30
2022-08-27T15:32:07.081Z,2.15
2022-08-27T15:34:33.744Z,2.55
2022-08-27T15:37:00.473Z,2.55
2022-08-27T15:39:27.157Z,1.88
2022-08-27T15:42:06.217Z,2.50
2022-08-27T15:44:34.953Z,1.98
2022-08-27T15:47:03.987Z,2.22
2022-08-27T15:49:31.066Z,1.67
2022-08-27T15:51:59.668Z,1.48
2022-08-27T15:54:26.905Z,2.00
2022-08-27T15:56:53.596Z,1.48
2022-08-27T15:59:20.224Z,1.23
2022-08-27T16:01:47.411Z,4.57
2022-08-27T16:04:15.464Z,1.48
2022-08-27T16:06:42.103Z,1.45
2022-08-27T16:09:08.737Z,2.90
2022-08-27T16:11:35.630Z,3.25
2022-08-27T16:14:03.184Z,1.60
2022-08-27T16:16:31.688Z,2.10
2022-08-27T16:19:00.898Z,1.70
2022-08-27T16:21:28.231Z,1.85
2022-08-27T16:23:55.109Z,1.52
2022-08-27T16:26:22.171Z,3.08
2022-08-27T16:28:49.251Z,3.00
2022-08-27T16:31:16.102Z,2.40
2022-08-27T16:33:43.530Z,2.03
2022-08-27T16:36:10.804Z,2.75
2022-08-27T16:38:37.923Z,3.65
2022-08-27T16:41:05.461Z,1.77
2022-08-27T16:43:32.841Z,2.00
2022-08-27T16:46:00.898Z,1.65
2022-08-27T16:48:47.586Z,2.25
2022-08-27T16:51:27.604Z,1.88
2022-08-27T16:53:54.354Z,1.60
2022-08-27T16:56:21.629Z,2.97
2022-08-27T16:58:55.040Z,2.63
2022-08-27T17:01:23.305Z,3.58
2022-08-27T17:04:08.523Z,4.25
2022-08-27T17:06:39.888Z,4.32
2022-08-27T17:09:07.533Z,1.83
2022-08-27T17:11:35.314Z,2.40
2022-08-27T17:14:03.126Z,3.30
2022-08-27T17:16:33.101Z,5.30
2022-08-27T17:19:01.191Z,3.00
2022-08-27T17:21:31.773Z,3.85
2022-08-27T17:24:01.635Z,3.17
2022-08-27T17:26:29.567Z,3.60
2022-08-27T17:28:56.292Z,5.82
2022-08-27T17:31:36.072Z,3.00
2022-08-27T17:34:04.122Z,4.78
2022-08-27T17:36:31.779Z,5.60
2022-08-27T17:39:00.651Z,4.00
2022-08-27T17:41:33.675Z,4.97
2022-08-27T17:44:05.783Z,2.97
2022-08-27T17:46:32.732Z,4.57
2022-08-27T17:48:59.686Z,7.50
2022-08-27T17:51:27.823Z,8.27
2022-08-27T17:54:00.604Z,10.52
2022-08-27T17:56:28.901Z,4.80
2022-08-27T17:58:55.651Z,4.47
2022-08-27T18:01:29.041Z,3.90
2022-08-27T18:03:56.853Z,4.63
2022-08-27T18:06:24.200Z,7.60
2022-08-27T18:08:51.311Z,9.13
2022-08-27T18:11:18.507Z,3.72
2022-08-27T18:13:48.016Z,4.50
2022-08-27T18:16:14.650Z,4.47
2022-08-27T18:18:41.915Z,6.80
2022-08-27T18:21:09.972Z,3.08
2022-08-27T18:23:37.244Z,3.35
2022-08-27T18:26:14.682Z,4.70
2022-08-27T18:28:42.211Z,3.03
2022-08-27T18:31:09.895Z,4.75
2022-08-27T18:33:37.713Z,3.22
2022-08-27T18:36:05.877Z,6.10
2022-08-27T18:38:33.103Z,2.60
2022-08-27T18:41:00.545Z,2.40
2022-08-27T18:43:32.916Z,2.45
2022-08-27T18:46:00.011Z,2.75
2022-08-27T18:48:27.133Z,4.18
2022-08-27T18:50:57.064Z,3.30
2022-08-27T18:53:24.408Z,4.47
2022-08-27T18:55:52.199Z,4.20
2022-08-27T18:58:19.811Z,2.67
2022-08-27T19:00:50.939Z,3.70
2022-08-27T19:03:29.003Z,2.88
2022-08-27T19:05:56.238Z,4.50
2022-08-27T19:08:25.680Z,3.92
2022-08-27T19:10:52.910Z,5.93
2022-08-27T19:13:19.625Z,4.25
2022-08-27T19:15:52.681Z,3.25
2022-08-27T19:18:19.684Z,5.18
2022-08-27T19:20:46.736Z,5.20
2022-08-27T19:23:13.592Z,4.45
2022-08-27T19:25:41.801Z,5.32
2022-08-27T19:28:08.945Z,6.72
2022-08-27T19:30:36.143Z,6.75
2022-08-27T19:33:02.810Z,5.65
2022-08-27T19:35:29.492Z,5.38
2022-08-27T19:37:56.625Z,4.68
2022-08-27T19:40:23.376Z,3.53
2022-08-27T19:42:50.704Z,5.43
2022-08-27T19:45:23.098Z,4.90
2022-08-27T19:47:51.645Z,3.35
2022-08-27T19:50:18.777Z,4.53
2022-08-27T19:52:47.346Z,4.88
2022-08-27T19:55:14.892Z,4.10
2022-08-27T19:57:42.640Z,3.80
2022-08-27T20:00:11.661Z,3.88
2022-08-27T20:02:38.433Z,6.75
2022-08-27T20:05:17.837Z,4.43
2022-08-27T20:07:51.171Z,1.40
2022-08-27T20:10:19.904Z,3.25
2022-08-27T20:12:48.904Z,3.33
2022-08-27T20:15:16.033Z,2.25
2022-08-27T20:17:43.951Z,2.03
2022-08-27T20:20:12.545Z,5.55
2022-08-27T20:22:39.801Z,6.72
2022-08-27T20:25:07.223Z,2.80
2022-08-27T20:27:34.009Z,2.08
2022-08-27T20:30:01.003Z,1.90
2022-08-27T20:32:30.095Z,2.15
2022-08-27T20:34:57.714Z,1.50
2022-08-27T20:37:24.446Z,1.67
2022-08-27T20:39:52.441Z,1.23
2022-08-27T20:42:19.968Z,1.10
2022-08-27T20:44:47.177Z,2.05
2022-08-27T20:47:15.146Z,1.00
2022-08-27T20:49:44.350Z,1.55
2022-08-27T20:52:12.831Z,1.77
2022-08-27T20:54:39.928Z,1.90
2022-08-27T20:57:08.640Z,3.28
2022-08-27T20:59:54.425Z,0.85
2022-08-27T21:02:23.344Z,2.45
2022-08-27T21:04:50.473Z,1.45
2022-08-27T21:07:18.629Z,2.67
2022-08-27T21:09:55.473Z,1.38
2022-08-27T21:12:24.729Z,1.40
2022-08-27T21:14:55.657Z,1.45
2022-08-27T21:17:26.878Z,2.75
2022-08-27T21:19:53.989Z,1.77
2022-08-27T21:22:22.048Z,1.75
2022-08-27T21:24:50.304Z,1.42
2022-08-27T21:27:18.203Z,1.45
2022-08-27T21:29:45.545Z,1.65
2022-08-27T21:32:13.273Z,3.00
2022-08-27T21:34:41.746Z,2.35
2022-08-27T21:37:10.996Z,1.05
2022-08-27T21:39:38.589Z,2.45
2022-08-27T21:42:05.777Z,3.33
2022-08-27T21:44:32.937Z,2.20
2022-08-27T21:47:01.582Z,1.02
2022-08-27T21:49:28.374Z,2.20
2022-08-27T21:51:55.033Z,1.20
2022-08-27T21:54:26.042Z,2.67
2022-08-27T21:56:52.916Z,0.90
2022-08-27T21:59:20.225Z,1.88
2022-08-27T22:01:47.008Z,3.83
2022-08-27T22:04:14.190Z,1.20
2022-08-27T22:06:40.888Z,1.42
2022-08-27T22:09:07.554Z,1.88
2022-08-27T22:11:34.657Z,0.93
2022-08-27T22:14:01.758Z,0.98
2022-08-27T22:16:29.218Z,1.00
2022-08-27T22:18:57.075Z,1.42
2022-08-27T22:21:24.905Z,0.98
2022-08-27T22:23:52.369Z,1.35
2022-08-27T22:26:20.939Z,1.35
2022-08-27T22:28:48.030Z,1.23
2022-08-27T22:31:14.862Z,0.70
2022-08-27T22:33:41.748Z,0.60
2022-08-27T22:36:08.813Z,1.33
2022-08-27T22:38:35.554Z,1.20
2022-08-27T22:41:02.720Z,0.77
2022-08-27T22:43:29.804Z,1.10
2022-08-27T22:45:56.814Z,1.65
2022-08-27T22:48:24.624Z,1.20
2022-08-27T22:50:51.337Z,1.35
2022-08-27T22:53:17.986Z,0.85
2022-08-27T22:55:49.885Z,0.55
2022-08-27T22:58:18.024Z,0.38
2022-08-27T23:00:52.143Z,0.43
2022-08-27T23:03:20.202Z,0.32
2022-08-27T23:05:46.991Z,0.57
2022-08-27T23:08:14.082Z,0.50
2022-08-27T23:10:42.473Z,0.88
2022-08-27T23:13:09.852Z,0.77
2022-08-27T23:15:38.555Z,0.73
2022-08-27T23:18:05.879Z,0.30
2022-08-27T23:20:33.072Z,0.38
2022-08-27T23:23:00.178Z,0.40
2022-08-27T23:25:46.056Z,0.57
2022-08-27T23:28:15.135Z,0.60
2022-08-27T23:30:42.884Z,2.08
2022-08-27T23:33:09.984Z,0.60
2022-08-27T23:35:37.052Z,0.50
2022-08-27T23:38:04.883Z,0.52
2022-08-27T23:40:32.079Z,0.45
2022-08-27T23:42:59.488Z,0.30
2022-08-27T23:45:26.931Z,0.45
2022-08-27T23:47:54.104Z,2.88
2022-08-27T23:50:23.098Z,0.40
2022-08-27T23:53:01.899Z,0.50
2022-08-27T23:55:29.067Z,1.38
2022-08-27T23:57:57.653Z,0.60
